sensor_id;sensor_type;location;lat;lon;timestamp;pressure;altitude;pressure_sealevel;temperature;humidity
79242;BME280;68670;48.720;9.118;2023-05-24T00:01:41;97135.03;;;12.63;65.46
79242;BME280;68670;48.720;9.118;2023-05-24T00:04:07;97128.38;;;12.59;66.00
79242;BME280;68670;48.720;9.118;2023-05-24T00:06:33;97125.13;;;12.62;65.56
79242;BME280;68670;48.720;9.118;2023-05-24T00:09:03;97126.72;;;12.58;66.24
79242;BME280;68670;48.720;9.118;2023-05-24T00:11:29;97120.78;;;12.50;66.21
79242;BME280;68670;48.720;9.118;2023-05-24T00:13:57;97121.88;;;12.49;66.44
79242;BME280;68670;48.720;9.118;2023-05-24T00:16:25;97126.34;;;12.38;67.19
79242;BME280;68670;48.720;9.118;2023-05-24T00:18:52;97121.53;;;12.45;66.60
79242;BME280;68670;48.720;9.118;2023-05-24T00:21:19;97117.13;;;12.44;66.44
79242;BME280;68670;48.720;9.118;2023-05-24T00:23:44;97111.28;;;12.40;67.07
79242;BME280;68670;48.720;9.118;2023-05-24T00:26:09;97112.63;;;12.38;67.05
79242;BME280;68670;48.720;9.118;2023-05-24T00:28:37;97116.19;;;12.38;66.93
79242;BME280;68670;48.720;9.118;2023-05-24T00:31:02;97112.03;;;12.36;66.93
79242;BME280;68670;48.720;9.118;2023-05-24T00:33:28;97113.69;;;12.37;67.14
79242;BME280;68670;48.720;9.118;2023-05-24T00:35:54;97110.53;;;12.45;66.95
79242;BME280;68670;48.720;9.118;2023-05-24T00:38:25;97101.03;;;12.36;67.06
79242;BME280;68670;48.720;9.118;2023-05-24T00:40:51;97103.88;;;12.41;66.82
79242;BME280;68670;48.720;9.118;2023-05-24T00:43:17;97103.88;;;12.41;67.09
79242;BME280;68670;48.720;9.118;2023-05-24T00:45:43;97106.72;;;12.29;67.42
79242;BME280;68670;48.720;9.118;2023-05-24T00:48:09;97103.72;;;12.31;67.26
79242;BME280;68670;48.720;9.118;2023-05-24T00:50:36;97111.19;;;12.35;67.33
79242;BME280;68670;48.720;9.118;2023-05-24T00:53:03;97103.25;;;12.34;66.97
79242;BME280;68670;48.720;9.118;2023-05-24T00:55:33;97105.91;;;12.29;67.14
79242;BME280;68670;48.720;9.118;2023-05-24T00:57:59;97112.22;;;12.29;67.81
79242;BME280;68670;48.720;9.118;2023-05-24T01:00:25;97110.06;;;12.31;67.44
79242;BME280;68670;48.720;9.118;2023-05-24T01:02:51;97102.91;;;12.30;66.72
79242;BME280;68670;48.720;9.118;2023-05-24T01:05:17;97114.22;;;12.34;67.04
79242;BME280;68670;48.720;9.118;2023-05-24T01:13:15;97107.97;;;12.22;67.17
79242;BME280;68670;48.720;9.118;2023-05-24T01:18:40;97108.06;;;12.27;66.45
79242;BME280;68670;48.720;9.118;2023-05-24T01:28:51;97101.00;;;12.02;67.32
79242;BME280;68670;48.720;9.118;2023-05-24T01:31:16;97102.63;;;11.98;67.34
79242;BME280;68670;48.720;9.118;2023-05-24T01:33:42;97101.13;;;12.07;67.31
79242;BME280;68670;48.720;9.118;2023-05-24T01:36:08;97100.28;;;12.07;67.31
79242;BME280;68670;48.720;9.118;2023-05-24T01:38:33;97105.53;;;12.08;66.78
79242;BME280;68670;48.720;9.118;2023-05-24T01:41:09;97102.38;;;12.00;66.98
79242;BME280;68670;48.720;9.118;2023-05-24T01:43:40;97099.78;;;11.93;66.36
79242;BME280;68670;48.720;9.118;2023-05-24T01:46:42;97103.84;;;11.91;67.00
79242;BME280;68670;48.720;9.118;2023-05-24T01:49:24;97110.66;;;11.88;66.96
79242;BME280;68670;48.720;9.118;2023-05-24T01:51:59;97105.66;;;11.85;66.33
79242;BME280;68670;48.720;9.118;2023-05-24T01:54:30;97109.22;;;11.86;66.83
79242;BME280;68670;48.720;9.118;2023-05-24T01:57:04;97109.56;;;11.89;65.48
79242;BME280;68670;48.720;9.118;2023-05-24T01:59:32;97102.53;;;11.93;65.24
79242;BME280;68670;48.720;9.118;2023-05-24T02:02:00;97101.94;;;11.91;65.43
79242;BME280;68670;48.720;9.118;2023-05-24T02:04:25;97110.16;;;11.91;65.77
79242;BME280;68670;48.720;9.118;2023-05-24T02:06:51;97099.69;;;11.88;65.43
79242;BME280;68670;48.720;9.118;2023-05-24T02:09:16;97102.91;;;11.85;65.36
79242;BME280;68670;48.720;9.118;2023-05-24T02:11:42;97103.41;;;11.82;65.99
79242;BME280;68670;48.720;9.118;2023-05-24T02:14:09;97103.31;;;11.77;65.37
79242;BME280;68670;48.720;9.118;2023-05-24T02:16:35;97094.00;;;11.78;64.94
79242;BME280;68670;48.720;9.118;2023-05-24T02:19:07;97104.84;;;11.73;65.17
79242;BME280;68670;48.720;9.118;2023-05-24T02:21:33;97106.91;;;11.66;64.75
79242;BME280;68670;48.720;9.118;2023-05-24T02:23:58;97106.81;;;11.61;64.41
79242;BME280;68670;48.720;9.118;2023-05-24T02:26:28;97113.72;;;11.63;64.46
79242;BME280;68670;48.720;9.118;2023-05-24T02:28:56;97112.53;;;11.59;64.39
79242;BME280;68670;48.720;9.118;2023-05-24T02:31:21;97107.75;;;11.66;63.91
79242;BME280;68670;48.720;9.118;2023-05-24T02:33:46;97113.63;;;11.58;64.22
79242;BME280;68670;48.720;9.118;2023-05-24T02:36:12;97106.84;;;11.49;64.32
79242;BME280;68670;48.720;9.118;2023-05-24T02:38:37;97108.66;;;11.43;63.83
79242;BME280;68670;48.720;9.118;2023-05-24T02:41:03;97105.66;;;11.45;64.00
79242;BME280;68670;48.720;9.118;2023-05-24T02:43:28;97108.16;;;11.47;64.01
79242;BME280;68670;48.720;9.118;2023-05-24T02:45:54;97104.81;;;11.44;64.09
79242;BME280;68670;48.720;9.118;2023-05-24T02:48:19;97106.38;;;11.40;64.01
79242;BME280;68670;48.720;9.118;2023-05-24T02:50:47;97106.97;;;11.42;64.47
79242;BME280;68670;48.720;9.118;2023-05-24T02:53:12;97109.72;;;11.42;64.32
79242;BME280;68670;48.720;9.118;2023-05-24T02:55:37;97115.59;;;11.34;64.51
79242;BME280;68670;48.720;9.118;2023-05-24T02:58:05;97109.91;;;11.24;64.88
79242;BME280;68670;48.720;9.118;2023-05-24T03:00:32;97106.44;;;11.29;64.68
79242;BME280;68670;48.720;9.118;2023-05-24T03:02:57;97112.28;;;11.32;64.75
79242;BME280;68670;48.720;9.118;2023-05-24T03:05:26;97112.41;;;11.26;65.01
79242;BME280;68670;48.720;9.118;2023-05-24T03:07:57;97105.13;;;11.20;65.51
79242;BME280;68670;48.720;9.118;2023-05-24T03:10:24;97102.75;;;11.23;65.67
79242;BME280;68670;48.720;9.118;2023-05-24T03:12:52;97102.03;;;11.16;66.02
79242;BME280;68670;48.720;9.118;2023-05-24T03:15:20;97112.06;;;11.22;65.54
79242;BME280;68670;48.720;9.118;2023-05-24T03:17:45;97109.19;;;11.17;65.74
79242;BME280;68670;48.720;9.118;2023-05-24T03:20:14;97117.78;;;11.09;66.35
79242;BME280;68670;48.720;9.118;2023-05-24T03:22:40;97111.03;;;11.00;67.05
79242;BME280;68670;48.720;9.118;2023-05-24T03:25:08;97117.59;;;10.99;66.85
79242;BME280;68670;48.720;9.118;2023-05-24T03:27:39;97116.50;;;11.00;67.14
79242;BME280;68670;48.720;9.118;2023-05-24T03:30:04;97122.06;;;11.05;67.18
79242;BME280;68670;48.720;9.118;2023-05-24T03:32:31;97108.53;;;10.98;67.65
79242;BME280;68670;48.720;9.118;2023-05-24T03:34:57;97111.75;;;10.95;67.07
79242;BME280;68670;48.720;9.118;2023-05-24T03:37:27;97107.47;;;10.88;67.69
79242;BME280;68670;48.720;9.118;2023-05-24T03:39:54;97110.19;;;10.88;67.62
79242;BME280;68670;48.720;9.118;2023-05-24T03:42:20;97116.50;;;10.88;67.58
79242;BME280;68670;48.720;9.118;2023-05-24T03:44:46;97116.63;;;10.93;67.56
79242;BME280;68670;48.720;9.118;2023-05-24T03:47:14;97117.81;;;10.86;67.46
79242;BME280;68670;48.720;9.118;2023-05-24T03:49:39;97122.94;;;10.82;67.81
79242;BME280;68670;48.720;9.118;2023-05-24T03:52:04;97128.53;;;10.87;67.60
79242;BME280;68670;48.720;9.118;2023-05-24T03:54:30;97117.34;;;10.89;67.20
79242;BME280;68670;48.720;9.118;2023-05-24T03:56:59;97118.78;;;10.80;67.74
79242;BME280;68670;48.720;9.118;2023-05-24T03:59:25;97116.63;;;10.82;67.66
79242;BME280;68670;48.720;9.118;2023-05-24T04:01:53;97123.91;;;10.88;67.78
79242;BME280;68670;48.720;9.118;2023-05-24T04:04:23;97111.50;;;10.85;67.88
79242;BME280;68670;48.720;9.118;2023-05-24T04:06:48;97110.78;;;10.78;67.72
79242;BME280;68670;48.720;9.118;2023-05-24T04:09:14;97103.78;;;10.70;67.99
79242;BME280;68670;48.720;9.118;2023-05-24T04:11:41;97104.63;;;10.71;68.05
79242;BME280;68670;48.720;9.118;2023-05-24T04:14:08;97109.47;;;10.81;67.70
79242;BME280;68670;48.720;9.118;2023-05-24T04:16:34;97101.97;;;10.88;67.00
79242;BME280;68670;48.720;9.118;2023-05-24T04:19:03;97099.59;;;10.80;67.49
79242;BME280;68670;48.720;9.118;2023-05-24T04:21:34;97107.34;;;10.83;67.60
79242;BME280;68670;48.720;9.118;2023-05-24T04:24:03;97109.25;;;10.82;67.53
79242;BME280;68670;48.720;9.118;2023-05-24T04:26:31;97099.47;;;10.74;67.78
79242;BME280;68670;48.720;9.118;2023-05-24T04:28:58;97092.59;;;10.72;67.54
79242;BME280;68670;48.720;9.118;2023-05-24T04:31:23;97102.72;;;10.71;67.70
79242;BME280;68670;48.720;9.118;2023-05-24T04:33:50;97103.28;;;10.73;67.86
79242;BME280;68670;48.720;9.118;2023-05-24T04:36:15;97100.91;;;10.77;67.79
79242;BME280;68670;48.720;9.118;2023-05-24T04:38:43;97112.47;;;10.79;67.95
79242;BME280;68670;48.720;9.118;2023-05-24T04:41:10;97118.66;;;10.86;67.70
79242;BME280;68670;48.720;9.118;2023-05-24T04:43:39;97116.63;;;10.82;68.06
79242;BME280;68670;48.720;9.118;2023-05-24T04:46:06;97116.63;;;10.82;68.01
79242;BME280;68670;48.720;9.118;2023-05-24T04:48:34;97117.09;;;10.78;67.63
79242;BME280;68670;48.720;9.118;2023-05-24T04:51:04;97122.47;;;10.73;67.70
79242;BME280;68670;48.720;9.118;2023-05-24T04:53:34;97116.06;;;10.68;67.74
79242;BME280;68670;48.720;9.118;2023-05-24T04:56:02;97123.53;;;10.72;67.83
79242;BME280;68670;48.720;9.118;2023-05-24T04:58:30;97129.28;;;10.71;67.78
79242;BME280;68670;48.720;9.118;2023-05-24T05:01:00;97123.53;;;10.72;67.80
79242;BME280;68670;48.720;9.118;2023-05-24T05:03:28;97132.97;;;10.65;68.36
79242;BME280;68670;48.720;9.118;2023-05-24T05:05:53;97131.19;;;10.70;68.07
79242;BME280;68670;48.720;9.118;2023-05-24T05:08:19;97137.59;;;10.64;68.89
79242;BME280;68670;48.720;9.118;2023-05-24T05:10:46;97138.81;;;10.68;68.62
79242;BME280;68670;48.720;9.118;2023-05-24T05:13:12;97139.97;;;10.72;68.22
79242;BME280;68670;48.720;9.118;2023-05-24T05:15:37;97135.31;;;10.73;67.90
79242;BME280;68670;48.720;9.118;2023-05-24T05:18:02;97133.81;;;10.65;68.20
79242;BME280;68670;48.720;9.118;2023-05-24T05:20:30;97137.50;;;10.71;68.32
79242;BME280;68670;48.720;9.118;2023-05-24T05:22:58;97139.03;;;10.78;68.06
79242;BME280;68670;48.720;9.118;2023-05-24T05:25:23;97141.16;;;10.76;67.90
79242;BME280;68670;48.720;9.118;2023-05-24T05:27:53;97143.31;;;10.74;67.08
79242;BME280;68670;48.720;9.118;2023-05-24T05:30:20;97140.81;;;10.73;67.13
79242;BME280;68670;48.720;9.118;2023-05-24T05:32:50;97136.16;;;10.73;67.39
79242;BME280;68670;48.720;9.118;2023-05-24T05:35:15;97140.59;;;10.63;68.08
79242;BME280;68670;48.720;9.118;2023-05-24T05:37:40;97137.00;;;10.74;67.63
79242;BME280;68670;48.720;9.118;2023-05-24T05:40:08;97141.75;;;10.78;67.93
79242;BME280;68670;48.720;9.118;2023-05-24T05:42:34;97147.13;;;10.73;67.63
79242;BME280;68670;48.720;9.118;2023-05-24T05:44:59;97138.34;;;10.71;67.52
79242;BME280;68670;48.720;9.118;2023-05-24T05:47:25;97136.16;;;10.73;67.56
79242;BME280;68670;48.720;9.118;2023-05-24T05:49:52;97147.84;;;10.81;67.53
79242;BME280;68670;48.720;9.118;2023-05-24T05:52:18;97145.22;;;10.86;67.30
79242;BME280;68670;48.720;9.118;2023-05-24T05:54:43;97137.59;;;10.88;68.19
79242;BME280;68670;48.720;9.118;2023-05-24T05:57:11;97143.78;;;10.95;67.33
79242;BME280;68670;48.720;9.118;2023-05-24T05:59:36;97142.59;;;10.91;66.86
79242;BME280;68670;48.720;9.118;2023-05-24T06:02:05;97146.41;;;10.90;66.95
79242;BME280;68670;48.720;9.118;2023-05-24T06:04:33;97140.94;;;10.90;68.03
79242;BME280;68670;48.720;9.118;2023-05-24T06:07:03;97142.13;;;10.94;67.75
79242;BME280;68670;48.720;9.118;2023-05-24T06:09:30;97145.09;;;11.04;67.85
79242;BME280;68670;48.720;9.118;2023-05-24T06:11:55;97135.69;;;11.00;66.69
79242;BME280;68670;48.720;9.118;2023-05-24T06:14:23;97134.72;;;11.06;67.07
79242;BME280;68670;48.720;9.118;2023-05-24T06:16:49;97126.97;;;11.15;67.18
79242;BME280;68670;48.720;9.118;2023-05-24T06:19:16;97142.94;;;11.18;66.16
79242;BME280;68670;48.720;9.118;2023-05-24T06:21:43;97134.94;;;11.16;65.44
79242;BME280;68670;48.720;9.118;2023-05-24T06:24:11;97136.16;;;10.97;65.56
79242;BME280;68670;48.720;9.118;2023-05-24T06:26:37;97150.00;;;11.02;65.50
79242;BME280;68670;48.720;9.118;2023-05-24T06:29:07;97134.03;;;10.99;65.98
79242;BME280;68670;48.720;9.118;2023-05-24T06:31:33;97138.53;;;11.05;66.96
79242;BME280;68670;48.720;9.118;2023-05-24T06:34:01;97134.00;;;11.10;65.70
79242;BME280;68670;48.720;9.118;2023-05-24T06:36:27;97133.50;;;11.14;66.04
79242;BME280;68670;48.720;9.118;2023-05-24T06:38:52;97145.44;;;11.19;66.95
79242;BME280;68670;48.720;9.118;2023-05-24T06:41:17;97135.41;;;11.25;65.89
79242;BME280;68670;48.720;9.118;2023-05-24T06:43:45;97144.13;;;11.22;65.62
79242;BME280;68670;48.720;9.118;2023-05-24T06:46:10;97145.78;;;11.23;65.85
79242;BME280;68670;48.720;9.118;2023-05-24T06:48:36;97141.84;;;11.30;66.06
79242;BME280;68670;48.720;9.118;2023-05-24T06:51:01;97137.53;;;11.34;64.87
79242;BME280;68670;48.720;9.118;2023-05-24T06:53:26;97145.19;;;11.32;64.51
79242;BME280;68670;48.720;9.118;2023-05-24T06:55:52;97141.63;;;11.20;64.74
79242;BME280;68670;48.720;9.118;2023-05-24T06:58:17;97153.06;;;11.17;64.78
79242;BME280;68670;48.720;9.118;2023-05-24T07:00:42;97160.69;;;11.15;64.75
79242;BME280;68670;48.720;9.118;2023-05-24T07:03:12;97148.88;;;11.15;65.29
79242;BME280;68670;48.720;9.118;2023-05-24T07:05:37;97152.94;;;11.24;65.88
79242;BME280;68670;48.720;9.118;2023-05-24T07:08:03;97168.19;;;11.20;64.67
79242;BME280;68670;48.720;9.118;2023-05-24T07:10:30;97156.88;;;11.16;65.88
79242;BME280;68670;48.720;9.118;2023-05-24T07:13:00;97171.78;;;11.32;65.91
79242;BME280;68670;48.720;9.118;2023-05-24T07:15:28;97174.28;;;11.33;66.07
79242;BME280;68670;48.720;9.118;2023-05-24T07:17:53;97180.91;;;11.37;64.98
79242;BME280;68670;48.720;9.118;2023-05-24T07:20:18;97188.19;;;11.43;65.39
79242;BME280;68670;48.720;9.118;2023-05-24T07:22:46;97179.28;;;11.36;64.85
79242;BME280;68670;48.720;9.118;2023-05-24T07:25:14;97185.84;;;11.35;65.55
79242;BME280;68670;48.720;9.118;2023-05-24T07:27:39;97185.59;;;11.14;64.55
79242;BME280;68670;48.720;9.118;2023-05-24T07:30:07;97186.91;;;11.11;65.35
79242;BME280;68670;48.720;9.118;2023-05-24T07:32:35;97195.72;;;11.13;65.18
79242;BME280;68670;48.720;9.118;2023-05-24T07:35:00;97203.34;;;11.11;65.19
79242;BME280;68670;48.720;9.118;2023-05-24T07:37:25;97194.53;;;11.09;64.90
79242;BME280;68670;48.720;9.118;2023-05-24T07:39:51;97201.22;;;11.13;65.66
79242;BME280;68670;48.720;9.118;2023-05-24T07:42:16;97201.94;;;11.20;66.42
79242;BME280;68670;48.720;9.118;2023-05-24T07:44:41;97202.88;;;11.26;65.24
79242;BME280;68670;48.720;9.118;2023-05-24T07:47:07;97207.41;;;11.20;64.69
79242;BME280;68670;48.720;9.118;2023-05-24T07:49:32;97207.88;;;11.17;64.92
79242;BME280;68670;48.720;9.118;2023-05-24T07:51:57;97197.41;;;11.02;65.78
79242;BME280;68670;48.720;9.118;2023-05-24T07:54:27;97201.94;;;11.08;65.17
79242;BME280;68670;48.720;9.118;2023-05-24T07:56:58;97203.97;;;11.01;66.07
79242;BME280;68670;48.720;9.118;2023-05-24T07:59:26;97213.00;;;11.14;66.63
79242;BME280;68670;48.720;9.118;2023-05-24T08:01:51;97214.09;;;11.24;65.67
79242;BME280;68670;48.720;9.118;2023-05-24T08:04:16;97206.69;;;11.36;65.33
79242;BME280;68670;48.720;9.118;2023-05-24T08:06:42;97204.28;;;11.52;66.07
79242;BME280;68670;48.720;9.118;2023-05-24T08:09:07;97206.16;;;11.63;65.55
79242;BME280;68670;48.720;9.118;2023-05-24T08:11:32;97211.66;;;11.63;63.46
79242;BME280;68670;48.720;9.118;2023-05-24T08:13:58;97217.34;;;11.73;65.89
79242;BME280;68670;48.720;9.118;2023-05-24T08:16:23;97218.06;;;11.80;65.29
79242;BME280;68670;48.720;9.118;2023-05-24T08:18:51;97219.84;;;11.86;65.39
79242;BME280;68670;48.720;9.118;2023-05-24T08:21:19;97225.09;;;11.76;63.33
79242;BME280;68670;48.720;9.118;2023-05-24T08:23:44;97226.06;;;11.82;62.98
79242;BME280;68670;48.720;9.118;2023-05-24T08:26:09;97221.06;;;11.78;63.56
79242;BME280;68670;48.720;9.118;2023-05-24T08:28:40;97223.28;;;11.93;63.54
79242;BME280;68670;48.720;9.118;2023-05-24T08:31:08;97224.50;;;11.74;63.60
79242;BME280;68670;48.720;9.118;2023-05-24T08:33:33;97237.41;;;11.62;63.69
79242;BME280;68670;48.720;9.118;2023-05-24T08:36:01;97232.38;;;11.70;65.66
79242;BME280;68670;48.720;9.118;2023-05-24T08:38:26;97235.28;;;11.64;64.69
79242;BME280;68670;48.720;9.118;2023-05-24T08:40:52;97239.09;;;11.63;63.82
79242;BME280;68670;48.720;9.118;2023-05-24T08:43:19;97244.09;;;11.66;64.75
79242;BME280;68670;48.720;9.118;2023-05-24T08:45:48;97235.84;;;11.77;64.35
79242;BME280;68670;48.720;9.118;2023-05-24T08:48:15;97246.34;;;11.81;63.48
79242;BME280;68670;48.720;9.118;2023-05-24T08:50:42;97241.69;;;11.81;63.81
79242;BME280;68670;48.720;9.118;2023-05-24T08:53:12;97237.88;;;11.82;63.64
79242;BME280;68670;48.720;9.118;2023-05-24T08:55:41;97247.06;;;11.88;62.99
79242;BME280;68670;48.720;9.118;2023-05-24T08:58:10;97238.69;;;11.94;62.47
79242;BME280;68670;48.720;9.118;2023-05-24T09:00:38;97242.75;;;11.92;62.59
79242;BME280;68670;48.720;9.118;2023-05-24T09:03:04;97239.03;;;11.98;62.97
79242;BME280;68670;48.720;9.118;2023-05-24T09:05:32;97232.25;;;11.89;62.85
79242;BME280;68670;48.720;9.118;2023-05-24T09:08:01;97237.78;;;12.05;62.77
79242;BME280;68670;48.720;9.118;2023-05-24T09:10:31;97231.19;;;12.18;61.74
79242;BME280;68670;48.720;9.118;2023-05-24T09:13:00;97240.78;;;12.04;61.76
79242;BME280;68670;48.720;9.118;2023-05-24T09:15:28;97235.16;;;12.10;62.03
79242;BME280;68670;48.720;9.118;2023-05-24T09:17:56;97229.00;;;12.32;62.65
79242;BME280;68670;48.720;9.118;2023-05-24T09:20:21;97225.41;;;12.31;60.19
79242;BME280;68670;48.720;9.118;2023-05-24T09:22:51;97222.09;;;12.46;60.29
79242;BME280;68670;48.720;9.118;2023-05-24T09:25:18;97230.00;;;12.42;59.98
79242;BME280;68670;48.720;9.118;2023-05-24T09:27:51;97225.44;;;12.48;60.17
79242;BME280;68670;48.720;9.118;2023-05-24T09:30:17;97232.91;;;12.36;60.34
79242;BME280;68670;48.720;9.118;2023-05-24T09:33:03;97231.16;;;12.30;61.65
79242;BME280;68670;48.720;9.118;2023-05-24T09:35:31;97236.72;;;12.35;60.20
79242;BME280;68670;48.720;9.118;2023-05-24T09:37:57;97237.72;;;12.29;61.07
79242;BME280;68670;48.720;9.118;2023-05-24T09:40:24;97241.56;;;12.28;60.72
79242;BME280;68670;48.720;9.118;2023-05-24T09:43:02;97236.88;;;12.28;62.02
79242;BME280;68670;48.720;9.118;2023-05-24T09:45:30;97239.28;;;12.25;61.96
79242;BME280;68670;48.720;9.118;2023-05-24T09:48:08;97240.66;;;12.10;61.74
79242;BME280;68670;48.720;9.118;2023-05-24T09:50:34;97246.91;;;11.94;61.41
79242;BME280;68670;48.720;9.118;2023-05-24T09:53:04;97250.03;;;11.86;62.08
79242;BME280;68670;48.720;9.118;2023-05-24T09:55:31;97248.59;;;11.72;62.26
79242;BME280;68670;48.720;9.118;2023-05-24T09:58:06;97241.72;;;11.58;62.72
79242;BME280;68670;48.720;9.118;2023-05-24T10:00:40;97245.53;;;11.57;61.24
79242;BME280;68670;48.720;9.118;2023-05-24T10:03:09;97244.44;;;11.69;62.96
79242;BME280;68670;48.720;9.118;2023-05-24T10:05:36;97248.13;;;11.75;62.98
79242;BME280;68670;48.720;9.118;2023-05-24T10:08:04;97240.13;;;11.73;62.50
79242;BME280;68670;48.720;9.118;2023-05-24T10:10:31;97243.47;;;11.75;63.53
79242;BME280;68670;48.720;9.118;2023-05-24T10:13:00;97242.88;;;11.85;62.69
79242;BME280;68670;48.720;9.118;2023-05-24T10:15:28;97240.47;;;12.00;62.31
79242;BME280;68670;48.720;9.118;2023-05-24T10:17:55;97235.84;;;12.18;62.75
79242;BME280;68670;48.720;9.118;2023-05-24T10:20:22;97238.38;;;12.36;61.97
79242;BME280;68670;48.720;9.118;2023-05-24T10:22:51;97238.38;;;12.36;61.20
79242;BME280;68670;48.720;9.118;2023-05-24T10:25:26;97245.53;;;12.37;61.47
79242;BME280;68670;48.720;9.118;2023-05-24T10:27:56;97234.50;;;12.32;61.54
79242;BME280;68670;48.720;9.118;2023-05-24T10:30:25;97242.91;;;12.42;60.32
79242;BME280;68670;48.720;9.118;2023-05-24T10:32:54;97236.34;;;12.15;60.05
79242;BME280;68670;48.720;9.118;2023-05-24T10:35:21;97243.03;;;12.07;61.46
79242;BME280;68670;48.720;9.118;2023-05-24T10:37:52;97242.88;;;11.85;60.67
79242;BME280;68670;48.720;9.118;2023-05-24T10:40:20;97252.91;;;11.91;61.38
79242;BME280;68670;48.720;9.118;2023-05-24T10:42:46;97244.56;;;11.86;62.72
79242;BME280;68670;48.720;9.118;2023-05-24T10:47:52;97240.50;;;11.89;62.09
79242;BME280;68670;48.720;9.118;2023-05-24T10:50:19;97236.44;;;11.91;60.56
79242;BME280;68670;48.720;9.118;2023-05-24T10:52:47;97235.25;;;11.87;62.72
79242;BME280;68670;48.720;9.118;2023-05-24T10:55:13;97238.34;;;11.91;61.39
79242;BME280;68670;48.720;9.118;2023-05-24T10:57:39;97234.16;;;11.88;61.42
79242;BME280;68670;48.720;9.118;2023-05-24T11:03:08;97233.31;;;11.76;59.84
79242;BME280;68670;48.720;9.118;2023-05-24T11:05:53;97228.38;;;11.50;58.78
79242;BME280;68670;48.720;9.118;2023-05-24T11:10:49;97234.31;;;11.47;60.24
79242;BME280;68670;48.720;9.118;2023-05-24T11:13:17;97229.91;;;11.57;60.09
79242;BME280;68670;48.720;9.118;2023-05-24T11:15:49;97233.94;;;11.78;61.99
79242;BME280;68670;48.720;9.118;2023-05-24T11:18:15;97234.75;;;11.90;59.08
79242;BME280;68670;48.720;9.118;2023-05-24T11:20:42;97231.72;;;12.03;58.82
79242;BME280;68670;48.720;9.118;2023-05-24T11:23:11;97230.25;;;12.13;58.68
79242;BME280;68670;48.720;9.118;2023-05-24T11:25:38;97230.56;;;12.28;57.53
79242;BME280;68670;48.720;9.118;2023-05-24T11:28:09;97227.91;;;12.33;56.38
79242;BME280;68670;48.720;9.118;2023-05-24T11:30:42;97216.94;;;12.33;56.04
79242;BME280;68670;48.720;9.118;2023-05-24T11:33:21;97229.75;;;12.44;55.83
79242;BME280;68670;48.720;9.118;2023-05-24T11:35:53;97212.63;;;12.54;56.31
79242;BME280;68670;48.720;9.118;2023-05-24T11:38:21;97211.47;;;12.83;54.15
79242;BME280;68670;48.720;9.118;2023-05-24T11:40:48;97215.56;;;12.81;54.41
79242;BME280;68670;48.720;9.118;2023-05-24T11:45:42;97219.50;;;13.18;55.04
79242;BME280;68670;48.720;9.118;2023-05-24T11:48:10;97218.22;;;13.42;52.70
79242;BME280;68670;48.720;9.118;2023-05-24T11:50:40;97215.09;;;13.56;52.57
79242;BME280;68670;48.720;9.118;2023-05-24T11:53:09;97211.44;;;13.50;51.93
79242;BME280;68670;48.720;9.118;2023-05-24T11:55:37;97201.44;;;13.44;53.58
79242;BME280;68670;48.720;9.118;2023-05-24T11:58:09;97206.00;;;13.77;50.04
79242;BME280;68670;48.720;9.118;2023-05-24T12:00:37;97193.41;;;14.84;49.78
79242;BME280;68670;48.720;9.118;2023-05-24T12:03:02;97188.03;;;15.88;47.32
79242;BME280;68670;48.720;9.118;2023-05-24T12:05:35;97184.16;;;16.87;47.83
79242;BME280;68670;48.720;9.118;2023-05-24T12:08:06;97179.97;;;17.25;44.53
79242;BME280;68670;48.720;9.118;2023-05-24T12:10:38;97184.13;;;16.97;41.96
79242;BME280;68670;48.720;9.118;2023-05-24T12:13:04;97179.66;;;16.56;41.61
79242;BME280;68670;48.720;9.118;2023-05-24T12:15:31;97181.66;;;17.21;42.95
79242;BME280;68670;48.720;9.118;2023-05-24T12:17:59;97180.44;;;17.63;43.44
79242;BME280;68670;48.720;9.118;2023-05-24T12:20:28;97170.63;;;18.55;42.82
79242;BME280;68670;48.720;9.118;2023-05-24T12:22:56;97174.47;;;19.32;38.53
79242;BME280;68670;48.720;9.118;2023-05-24T12:25:26;97168.19;;;18.88;36.96
79242;BME280;68670;48.720;9.118;2023-05-24T12:27:54;97172.53;;;18.99;34.37
79242;BME280;68670;48.720;9.118;2023-05-24T12:30:25;97167.47;;;19.69;33.62
79242;BME280;68670;48.720;9.118;2023-05-24T12:32:51;97162.47;;;20.13;34.72
79242;BME280;68670;48.720;9.118;2023-05-24T12:35:20;97164.38;;;20.37;33.74
79242;BME280;68670;48.720;9.118;2023-05-24T12:37:49;97159.84;;;20.65;33.32
79242;BME280;68670;48.720;9.118;2023-05-24T12:40:20;97160.13;;;20.63;32.10
79242;BME280;68670;48.720;9.118;2023-05-24T12:42:53;97162.13;;;19.96;31.22
79242;BME280;68670;48.720;9.118;2023-05-24T12:45:21;97161.78;;;19.79;33.34
79242;BME280;68670;48.720;9.118;2023-05-24T12:47:49;97156.22;;;20.03;32.39
79242;BME280;68670;48.720;9.118;2023-05-24T12:50:15;97152.78;;;20.30;32.62
79242;BME280;68670;48.720;9.118;2023-05-24T12:52:43;97152.53;;;20.07;33.90
79242;BME280;68670;48.720;9.118;2023-05-24T12:55:12;97146.59;;;20.38;34.30
79242;BME280;68670;48.720;9.118;2023-05-24T12:57:41;97144.44;;;20.86;34.19
79242;BME280;68670;48.720;9.118;2023-05-24T13:00:08;97138.06;;;21.18;32.29
79242;BME280;68670;48.720;9.118;2023-05-24T13:02:38;97139.72;;;20.87;34.44
79242;BME280;68670;48.720;9.118;2023-05-24T13:05:06;97136.47;;;20.79;33.28
79242;BME280;68670;48.720;9.118;2023-05-24T13:07:32;97139.78;;;20.82;31.70
79242;BME280;68670;48.720;9.118;2023-05-24T13:09:57;97141.66;;;21.37;35.66
79242;BME280;68670;48.720;9.118;2023-05-24T13:12:24;97140.56;;;20.68;31.24
79242;BME280;68670;48.720;9.118;2023-05-24T13:14:50;97140.94;;;20.62;32.78
79242;BME280;68670;48.720;9.118;2023-05-24T13:17:16;97135.16;;;20.58;31.13
79242;BME280;68670;48.720;9.118;2023-05-24T13:19:42;97128.44;;;21.29;31.62
79242;BME280;68670;48.720;9.118;2023-05-24T13:22:09;97128.56;;;21.05;31.47
79242;BME280;68670;48.720;9.118;2023-05-24T13:24:37;97128.94;;;20.99;31.62
79242;BME280;68670;48.720;9.118;2023-05-24T13:27:06;97132.06;;;20.78;31.89
79242;BME280;68670;48.720;9.118;2023-05-24T13:29:31;97137.00;;;21.00;35.08